sensor_id;sensor_type;location;lat;lon;timestamp;temperature;humidity
6114;DHT22;3087;48.392;10.836;2023-02-01T00:01:43;5.40;99.90
6114;DHT22;3087;48.392;10.836;2023-02-01T00:04:09;5.30;99.90
6114;DHT22;3087;48.392;10.836;2023-02-01T00:06:34;5.30;99.90
6114;DHT22;3087;48.392;10.836;2023-02-01T00:09:00;5.30;99.90
6114;DHT22;3087;48.392;10.836;2023-02-01T00:11:26;5.30;99.90
6114;DHT22;3087;48.392;10.836;2023-02-01T00:13:53;5.30;99.90
6114;DHT22;3087;48.392;10.836;2023-02-01T00:16:21;5.20;99.90
6114;DHT22;3087;48.392;10.836;2023-02-01T00:18:48;5.20;99.90
6114;DHT22;3087;48.392;10.836;2023-02-01T00:21:15;5.20;99.90
6114;DHT22;3087;48.392;10.836;2023-02-01T00:23:41;5.10;99.90
6114;DHT22;3087;48.392;10.836;2023-02-01T00:26:13;5.00;99.90
6114;DHT22;3087;48.392;10.836;2023-02-01T00:28:39;5.10;99.90
6114;DHT22;3087;48.392;10.836;2023-02-01T00:31:04;6.60;99.90
6114;DHT22;3087;48.392;10.836;2023-02-01T00:33:31;5.00;99.90
6114;DHT22;3087;48.392;10.836;2023-02-01T00:35:58;6.10;99.90
6114;DHT22;3087;48.392;10.836;2023-02-01T00:38:25;4.90;99.90
6114;DHT22;3087;48.392;10.836;2023-02-01T00:40:51;4.90;99.90
6114;DHT22;3087;48.392;10.836;2023-02-01T00:43:17;5.40;99.90
6114;DHT22;3087;48.392;10.836;2023-02-01T00:45:42;4.90;99.90
6114;DHT22;3087;48.392;10.836;2023-02-01T00:48:08;4.90;99.90
6114;DHT22;3087;48.392;10.836;2023-02-01T00:50:33;4.90;99.90
6114;DHT22;3087;48.392;10.836;2023-02-01T00:52:59;4.90;99.90
6114;DHT22;3087;48.392;10.836;2023-02-01T00:55:26;4.90;99.90
6114;DHT22;3087;48.392;10.836;2023-02-01T00:57:51;5.00;99.90
6114;DHT22;3087;48.392;10.836;2023-02-01T01:00:17;5.00;99.90
6114;DHT22;3087;48.392;10.836;2023-02-01T01:02:43;5.00;99.90
6114;DHT22;3087;48.392;10.836;2023-02-01T01:05:09;4.80;99.90
6114;DHT22;3087;48.392;10.836;2023-02-01T01:07:35;4.80;99.90
6114;DHT22;3087;48.392;10.836;2023-02-01T01:10:00;5.10;99.90
6114;DHT22;3087;48.392;10.836;2023-02-01T01:12:26;4.90;99.90
6114;DHT22;3087;48.392;10.836;2023-02-01T01:14:51;4.90;99.90
6114;DHT22;3087;48.392;10.836;2023-02-01T01:17:17;4.90;99.90
6114;DHT22;3087;48.392;10.836;2023-02-01T01:19:43;4.90;99.90
6114;DHT22;3087;48.392;10.836;2023-02-01T01:22:08;4.80;99.90
6114;DHT22;3087;48.392;10.836;2023-02-01T01:24:34;4.80;99.90
6114;DHT22;3087;48.392;10.836;2023-02-01T01:26:59;4.70;99.90
6114;DHT22;3087;48.392;10.836;2023-02-01T01:29:25;4.90;99.90
6114;DHT22;3087;48.392;10.836;2023-02-01T01:31:51;4.70;99.90
6114;DHT22;3087;48.392;10.836;2023-02-01T01:34:16;4.70;99.90
6114;DHT22;3087;48.392;10.836;2023-02-01T01:36:42;4.60;99.90
6114;DHT22;3087;48.392;10.836;2023-02-01T01:39:07;5.00;99.90
6114;DHT22;3087;48.392;10.836;2023-02-01T01:41:33;4.80;99.90
6114;DHT22;3087;48.392;10.836;2023-02-01T01:44:06;4.70;99.90
6114;DHT22;3087;48.392;10.836;2023-02-01T01:46:36;5.00;99.90
6114;DHT22;3087;48.392;10.836;2023-02-01T01:49:12;4.60;99.90
6114;DHT22;3087;48.392;10.836;2023-02-01T01:51:51;4.60;99.90
6114;DHT22;3087;48.392;10.836;2023-02-01T01:54:21;4.60;99.90
6114;DHT22;3087;48.392;10.836;2023-02-01T01:56:53;4.50;99.90
6114;DHT22;3087;48.392;10.836;2023-02-01T01:59:20;4.50;99.90
6114;DHT22;3087;48.392;10.836;2023-02-01T02:01:47;4.60;99.90
6114;DHT22;3087;48.392;10.836;2023-02-01T02:04:13;4.60;99.90
6114;DHT22;3087;48.392;10.836;2023-02-01T02:07:05;4.60;99.90
6114;DHT22;3087;48.392;10.836;2023-02-01T02:09:33;4.70;99.90
6114;DHT22;3087;48.392;10.836;2023-02-01T02:11:59;4.70;99.90
6114;DHT22;3087;48.392;10.836;2023-02-01T02:14:25;4.70;99.90
6114;DHT22;3087;48.392;10.836;2023-02-01T02:23:02;4.70;99.90
6114;DHT22;3087;48.392;10.836;2023-02-01T02:33:39;4.70;99.90
6114;DHT22;3087;48.392;10.836;2023-02-01T02:36:37;4.70;99.90
6114;DHT22;3087;48.392;10.836;2023-02-01T02:50:41;4.40;99.90
6114;DHT22;3087;48.392;10.836;2023-02-01T02:53:35;4.50;99.90
6114;DHT22;3087;48.392;10.836;2023-02-01T02:56:23;4.50;99.90
6114;DHT22;3087;48.392;10.836;2023-02-01T02:59:12;4.60;99.90
6114;DHT22;3087;48.392;10.836;2023-02-01T03:01:58;4.60;99.90
6114;DHT22;3087;48.392;10.836;2023-02-01T03:04:42;4.60;99.90
6114;DHT22;3087;48.392;10.836;2023-02-01T03:07:13;4.40;99.90
6114;DHT22;3087;48.392;10.836;2023-02-01T03:09:41;4.40;99.90
6114;DHT22;3087;48.392;10.836;2023-02-01T03:12:12;4.40;99.90
6114;DHT22;3087;48.392;10.836;2023-02-01T03:15:03;4.50;99.90
6114;DHT22;3087;48.392;10.836;2023-02-01T03:17:35;4.50;99.90
6114;DHT22;3087;48.392;10.836;2023-02-01T03:20:05;4.50;99.90
6114;DHT22;3087;48.392;10.836;2023-02-01T03:22:33;4.50;99.90
6114;DHT22;3087;48.392;10.836;2023-02-01T03:25:25;4.40;99.90
6114;DHT22;3087;48.392;10.836;2023-02-01T03:30:25;4.20;99.90
6114;DHT22;3087;48.392;10.836;2023-02-01T03:32:54;4.20;99.90
6114;DHT22;3087;48.392;10.836;2023-02-01T03:35:40;4.30;99.90
6114;DHT22;3087;48.392;10.836;2023-02-01T03:40:48;4.30;99.90
6114;DHT22;3087;48.392;10.836;2023-02-01T03:43:17;4.40;99.90
6114;DHT22;3087;48.392;10.836;2023-02-01T03:45:47;4.20;99.90
6114;DHT22;3087;48.392;10.836;2023-02-01T03:48:14;4.20;99.90
6114;DHT22;3087;48.392;10.836;2023-02-01T03:50:46;4.30;99.90
6114;DHT22;3087;48.392;10.836;2023-02-01T03:53:19;4.40;99.90
6114;DHT22;3087;48.392;10.836;2023-02-01T03:55:46;4.30;99.90
6114;DHT22;3087;48.392;10.836;2023-02-01T03:58:20;4.30;99.90
6114;DHT22;3087;48.392;10.836;2023-02-01T04:00:58;4.50;99.90
6114;DHT22;3087;48.392;10.836;2023-02-01T04:03:25;4.20;99.90
6114;DHT22;3087;48.392;10.836;2023-02-01T04:05:52;4.20;99.90
6114;DHT22;3087;48.392;10.836;2023-02-01T04:08:22;4.30;99.90
6114;DHT22;3087;48.392;10.836;2023-02-01T04:10:47;4.40;99.90
6114;DHT22;3087;48.392;10.836;2023-02-01T04:13:13;4.40;99.90
6114;DHT22;3087;48.392;10.836;2023-02-01T04:15:40;4.50;99.90
6114;DHT22;3087;48.392;10.836;2023-02-01T04:18:05;4.50;99.90
6114;DHT22;3087;48.392;10.836;2023-02-01T04:20:31;4.40;99.90
6114;DHT22;3087;48.392;10.836;2023-02-01T04:22:57;4.40;99.90
6114;DHT22;3087;48.392;10.836;2023-02-01T04:25:23;4.50;99.90
6114;DHT22;3087;48.392;10.836;2023-02-01T04:27:48;4.50;99.90
6114;DHT22;3087;48.392;10.836;2023-02-01T04:30:14;4.50;99.90
6114;DHT22;3087;48.392;10.836;2023-02-01T04:32:40;4.50;99.90
6114;DHT22;3087;48.392;10.836;2023-02-01T04:35:07;4.50;99.90
6114;DHT22;3087;48.392;10.836;2023-02-01T04:37:33;4.60;99.90
6114;DHT22;3087;48.392;10.836;2023-02-01T04:39:58;4.60;99.90
6114;DHT22;3087;48.392;10.836;2023-02-01T04:42:24;4.70;99.90
6114;DHT22;3087;48.392;10.836;2023-02-01T04:44:50;4.70;99.90
6114;DHT22;3087;48.392;10.836;2023-02-01T04:47:15;4.80;99.90
6114;DHT22;3087;48.392;10.836;2023-02-01T04:49:41;4.80;99.90
6114;DHT22;3087;48.392;10.836;2023-02-01T04:52:07;4.80;99.90
6114;DHT22;3087;48.392;10.836;2023-02-01T04:54:33;4.80;99.90
6114;DHT22;3087;48.392;10.836;2023-02-01T04:56:59;4.90;99.90
6114;DHT22;3087;48.392;10.836;2023-02-01T04:59:25;4.80;99.90
6114;DHT22;3087;48.392;10.836;2023-02-01T05:01:51;4.60;99.90
6114;DHT22;3087;48.392;10.836;2023-02-01T05:04:16;4.50;99.90
6114;DHT22;3087;48.392;10.836;2023-02-01T05:06:44;4.50;99.90
6114;DHT22;3087;48.392;10.836;2023-02-01T05:09:10;4.60;99.90
6114;DHT22;3087;48.392;10.836;2023-02-01T05:11:35;4.60;99.90
6114;DHT22;3087;48.392;10.836;2023-02-01T05:14:20;4.60;99.90
6114;DHT22;3087;48.392;10.836;2023-02-01T05:16:46;4.60;99.90
6114;DHT22;3087;48.392;10.836;2023-02-01T05:19:11;4.70;99.90
6114;DHT22;3087;48.392;10.836;2023-02-01T05:21:37;4.80;99.90
6114;DHT22;3087;48.392;10.836;2023-02-01T05:24:03;5.00;99.90
6114;DHT22;3087;48.392;10.836;2023-02-01T05:26:36;4.70;99.90
6114;DHT22;3087;48.392;10.836;2023-02-01T05:29:03;4.70;99.90
6114;DHT22;3087;48.392;10.836;2023-02-01T05:31:28;4.60;99.90
6114;DHT22;3087;48.392;10.836;2023-02-01T05:33:54;4.50;99.90
6114;DHT22;3087;48.392;10.836;2023-02-01T05:36:20;4.60;99.90
6114;DHT22;3087;48.392;10.836;2023-02-01T05:38:46;4.70;99.90
6114;DHT22;3087;48.392;10.836;2023-02-01T05:41:11;4.60;99.90
6114;DHT22;3087;48.392;10.836;2023-02-01T05:43:37;4.60;99.90
6114;DHT22;3087;48.392;10.836;2023-02-01T05:46:03;4.70;99.90
6114;DHT22;3087;48.392;10.836;2023-02-01T05:48:29;4.70;99.90
6114;DHT22;3087;48.392;10.836;2023-02-01T05:50:55;4.60;99.90
6114;DHT22;3087;48.392;10.836;2023-02-01T05:53:21;4.60;99.90
6114;DHT22;3087;48.392;10.836;2023-02-01T05:55:46;4.50;99.90
6114;DHT22;3087;48.392;10.836;2023-02-01T05:58:13;4.40;99.90
6114;DHT22;3087;48.392;10.836;2023-02-01T06:00:39;4.40;99.90
6114;DHT22;3087;48.392;10.836;2023-02-01T06:03:05;6.20;99.90
6114;DHT22;3087;48.392;10.836;2023-02-01T06:05:30;4.50;99.90
6114;DHT22;3087;48.392;10.836;2023-02-01T06:07:56;4.60;99.90
6114;DHT22;3087;48.392;10.836;2023-02-01T06:10:22;4.60;99.90
6114;DHT22;3087;48.392;10.836;2023-02-01T06:12:48;4.60;99.90
6114;DHT22;3087;48.392;10.836;2023-02-01T06:15:14;4.60;99.90
6114;DHT22;3087;48.392;10.836;2023-02-01T06:17:44;4.90;99.90
6114;DHT22;3087;48.392;10.836;2023-02-01T06:20:12;4.50;99.90
6114;DHT22;3087;48.392;10.836;2023-02-01T06:22:38;4.70;99.90
6114;DHT22;3087;48.392;10.836;2023-02-01T06:25:05;4.60;99.90
6114;DHT22;3087;48.392;10.836;2023-02-01T06:27:31;4.60;99.90
6114;DHT22;3087;48.392;10.836;2023-02-01T06:29:57;4.50;99.90
6114;DHT22;3087;48.392;10.836;2023-02-01T06:32:23;4.50;99.90
6114;DHT22;3087;48.392;10.836;2023-02-01T06:34:49;4.50;99.90
6114;DHT22;3087;48.392;10.836;2023-02-01T06:37:14;4.60;99.90
6114;DHT22;3087;48.392;10.836;2023-02-01T06:39:40;4.70;99.90
6114;DHT22;3087;48.392;10.836;2023-02-01T06:42:06;4.60;99.90
6114;DHT22;3087;48.392;10.836;2023-02-01T06:44:31;4.60;99.90
6114;DHT22;3087;48.392;10.836;2023-02-01T06:46:57;4.40;99.90
6114;DHT22;3087;48.392;10.836;2023-02-01T06:49:23;4.50;99.90
6114;DHT22;3087;48.392;10.836;2023-02-01T06:51:48;6.30;99.90
6114;DHT22;3087;48.392;10.836;2023-02-01T06:54:14;4.50;99.90
6114;DHT22;3087;48.392;10.836;2023-02-01T06:56:40;4.60;99.90
6114;DHT22;3087;48.392;10.836;2023-02-01T06:59:07;4.70;99.90
6114;DHT22;3087;48.392;10.836;2023-02-01T07:01:34;4.70;99.90
6114;DHT22;3087;48.392;10.836;2023-02-01T07:04:00;4.70;99.90
6114;DHT22;3087;48.392;10.836;2023-02-01T07:06:25;4.70;99.90
6114;DHT22;3087;48.392;10.836;2023-02-01T07:08:51;4.90;99.90
6114;DHT22;3087;48.392;10.836;2023-02-01T07:11:18;4.80;99.90
6114;DHT22;3087;48.392;10.836;2023-02-01T07:13:44;4.80;99.90
6114;DHT22;3087;48.392;10.836;2023-02-01T07:16:12;4.90;99.90
6114;DHT22;3087;48.392;10.836;2023-02-01T07:18:38;4.90;99.90
6114;DHT22;3087;48.392;10.836;2023-02-01T07:21:05;4.90;99.90
6114;DHT22;3087;48.392;10.836;2023-02-01T07:23:30;4.90;99.90
6114;DHT22;3087;48.392;10.836;2023-02-01T07:25:58;4.90;99.90
6114;DHT22;3087;48.392;10.836;2023-02-01T07:28:24;4.90;99.90
6114;DHT22;3087;48.392;10.836;2023-02-01T07:30:50;4.90;99.90
6114;DHT22;3087;48.392;10.836;2023-02-01T07:33:23;4.80;99.90
6114;DHT22;3087;48.392;10.836;2023-02-01T07:35:51;4.80;99.90
6114;DHT22;3087;48.392;10.836;2023-02-01T07:38:17;4.80;99.90
6114;DHT22;3087;48.392;10.836;2023-02-01T07:40:43;4.80;99.90
6114;DHT22;3087;48.392;10.836;2023-02-01T07:43:09;4.90;99.90
6114;DHT22;3087;48.392;10.836;2023-02-01T07:45:35;5.00;99.90
6114;DHT22;3087;48.392;10.836;2023-02-01T07:48:02;5.00;99.90
6114;DHT22;3087;48.392;10.836;2023-02-01T07:50:28;5.10;99.90
6114;DHT22;3087;48.392;10.836;2023-02-01T07:52:54;5.50;99.90
6114;DHT22;3087;48.392;10.836;2023-02-01T07:55:20;5.10;99.90
6114;DHT22;3087;48.392;10.836;2023-02-01T07:57:46;5.10;99.90
6114;DHT22;3087;48.392;10.836;2023-02-01T08:00:12;5.80;99.90
6114;DHT22;3087;48.392;10.836;2023-02-01T08:02:59;5.10;99.90
6114;DHT22;3087;48.392;10.836;2023-02-01T08:05:26;5.30;99.90
6114;DHT22;3087;48.392;10.836;2023-02-01T08:07:51;6.10;99.90
6114;DHT22;3087;48.392;10.836;2023-02-01T08:10:17;5.30;99.90
6114;DHT22;3087;48.392;10.836;2023-02-01T08:12:43;5.30;99.90
6114;DHT22;3087;48.392;10.836;2023-02-01T08:15:13;5.30;99.90
6114;DHT22;3087;48.392;10.836;2023-02-01T08:17:40;5.30;99.90
6114;DHT22;3087;48.392;10.836;2023-02-01T08:20:06;5.30;99.90
6114;DHT22;3087;48.392;10.836;2023-02-01T08:22:32;5.40;99.90
6114;DHT22;3087;48.392;10.836;2023-02-01T08:24:57;5.40;99.90
6114;DHT22;3087;48.392;10.836;2023-02-01T08:27:26;5.40;99.90
6114;DHT22;3087;48.392;10.836;2023-02-01T08:29:52;7.50;99.90
6114;DHT22;3087;48.392;10.836;2023-02-01T08:32:19;5.50;99.90
6114;DHT22;3087;48.392;10.836;2023-02-01T08:34:45;5.50;99.90
6114;DHT22;3087;48.392;10.836;2023-02-01T08:37:10;5.60;99.90
6114;DHT22;3087;48.392;10.836;2023-02-01T08:39:36;4.30;99.90
6114;DHT22;3087;48.392;10.836;2023-02-01T08:42:02;5.70;99.90
6114;DHT22;3087;48.392;10.836;2023-02-01T08:44:46;5.70;99.90
6114;DHT22;3087;48.392;10.836;2023-02-01T08:47:12;5.50;99.90
6114;DHT22;3087;48.392;10.836;2023-02-01T08:49:38;5.50;99.90
6114;DHT22;3087;48.392;10.836;2023-02-01T08:52:03;5.50;99.90
6114;DHT22;3087;48.392;10.836;2023-02-01T08:54:29;5.50;99.90
6114;DHT22;3087;48.392;10.836;2023-02-01T08:56:56;5.60;99.90
6114;DHT22;3087;48.392;10.836;2023-02-01T08:59:21;5.70;99.90
6114;DHT22;3087;48.392;10.836;2023-02-01T09:01:47;5.70;99.90
6114;DHT22;3087;48.392;10.836;2023-02-01T09:04:12;5.80;99.90
6114;DHT22;3087;48.392;10.836;2023-02-01T09:06:40;5.90;99.90
6114;DHT22;3087;48.392;10.836;2023-02-01T09:09:06;6.00;99.90
6114;DHT22;3087;48.392;10.836;2023-02-01T09:11:32;6.60;99.90
6114;DHT22;3087;48.392;10.836;2023-02-01T09:13:57;6.10;99.90
6114;DHT22;3087;48.392;10.836;2023-02-01T09:16:23;6.10;99.90
6114;DHT22;3087;48.392;10.836;2023-02-01T09:18:49;6.10;99.90
6114;DHT22;3087;48.392;10.836;2023-02-01T09:21:14;6.50;99.90
6114;DHT22;3087;48.392;10.836;2023-02-01T09:23:40;6.10;99.90
6114;DHT22;3087;48.392;10.836;2023-02-01T09:26:06;6.10;99.90
6114;DHT22;3087;48.392;10.836;2023-02-01T09:28:32;6.10;99.90
6114;DHT22;3087;48.392;10.836;2023-02-01T09:30:58;8.30;99.90
6114;DHT22;3087;48.392;10.836;2023-02-01T09:33:26;6.00;99.90
6114;DHT22;3087;48.392;10.836;2023-02-01T09:35:59;5.90;99.90
6114;DHT22;3087;48.392;10.836;2023-02-01T09:38:25;5.90;99.90
6114;DHT22;3087;48.392;10.836;2023-02-01T09:40:53;6.00;99.90
6114;DHT22;3087;48.392;10.836;2023-02-01T09:48:24;6.10;99.90
6114;DHT22;3087;48.392;10.836;2023-02-01T09:50:56;6.20;99.90
6114;DHT22;3087;48.392;10.836;2023-02-01T09:53:33;6.40;99.90
6114;DHT22;3087;48.392;10.836;2023-02-01T09:56:05;6.00;99.90
6114;DHT22;3087;48.392;10.836;2023-02-01T09:58:44;6.30;99.90
6114;DHT22;3087;48.392;10.836;2023-02-01T10:01:20;6.10;99.90
6114;DHT22;3087;48.392;10.836;2023-02-01T10:03:48;6.20;99.90
6114;DHT22;3087;48.392;10.836;2023-02-01T10:26:20;6.60;99.90
6114;DHT22;3087;48.392;10.836;2023-02-01T10:28:50;6.50;99.90
6114;DHT22;3087;48.392;10.836;2023-02-01T10:31:18;6.60;99.90
6114;DHT22;3087;48.392;10.836;2023-02-01T10:33:49;6.60;99.90
6114;DHT22;3087;48.392;10.836;2023-02-01T10:36:32;6.60;99.90
6114;DHT22;3087;48.392;10.836;2023-02-01T10:39:03;6.60;99.90
6114;DHT22;3087;48.392;10.836;2023-02-01T10:41:39;6.70;99.90
6114;DHT22;3087;48.392;10.836;2023-02-01T10:44:26;6.50;99.90
6114;DHT22;3087;48.392;10.836;2023-02-01T10:46:52;6.30;99.90
6114;DHT22;3087;48.392;10.836;2023-02-01T10:49:26;6.40;99.90
6114;DHT22;3087;48.392;10.836;2023-02-01T10:52:12;7.40;99.90
6114;DHT22;3087;48.392;10.836;2023-02-01T10:54:39;6.50;99.90
6114;DHT22;3087;48.392;10.836;2023-02-01T10:57:25;6.60;99.90
6114;DHT22;3087;48.392;10.836;2023-02-01T10:59:53;6.90;99.90
6114;DHT22;3087;48.392;10.836;2023-02-01T11:02:31;6.70;99.90
6114;DHT22;3087;48.392;10.836;2023-02-01T11:05:08;6.70;99.90
6114;DHT22;3087;48.392;10.836;2023-02-01T11:07:36;6.80;99.90
6114;DHT22;3087;48.392;10.836;2023-02-01T11:10:02;6.70;99.90
6114;DHT22;3087;48.392;10.836;2023-02-01T11:12:34;6.50;99.90
6114;DHT22;3087;48.392;10.836;2023-02-01T11:17:46;6.50;99.90
6114;DHT22;3087;48.392;10.836;2023-02-01T11:20:21;6.40;99.90
6114;DHT22;3087;48.392;10.836;2023-02-01T11:22:56;6.20;99.90
6114;DHT22;3087;48.392;10.836;2023-02-01T11:25:23;6.40;99.90
6114;DHT22;3087;48.392;10.836;2023-02-01T11:27:50;6.40;99.90
6114;DHT22;3087;48.392;10.836;2023-02-01T11:32:51;6.50;99.90
6114;DHT22;3087;48.392;10.836;2023-02-01T11:35:19;6.70;99.90
6114;DHT22;3087;48.392;10.836;2023-02-01T11:37:50;6.70;99.90
6114;DHT22;3087;48.392;10.836;2023-02-01T11:45:32;6.50;99.90
6114;DHT22;3087;48.392;10.836;2023-02-01T11:48:10;6.40;99.90
6114;DHT22;3087;48.392;10.836;2023-02-01T11:56:09;6.60;99.90
6114;DHT22;3087;48.392;10.836;2023-02-01T12:06:51;5.90;99.90
6114;DHT22;3087;48.392;10.836;2023-02-01T12:25:43;6.20;99.90
6114;DHT22;3087;48.392;10.836;2023-02-01T12:31:09;6.10;99.90
6114;DHT22;3087;48.392;10.836;2023-02-01T12:34:00;6.30;99.90
6114;DHT22;3087;48.392;10.836;2023-02-01T12:52:46;6.50;99.90
6114;DHT22;3087;48.392;10.836;2023-02-01T12:55:36;7.10;99.90
6114;DHT22;3087;48.392;10.836;2023-02-01T13:00:48;6.60;99.90
6114;DHT22;3087;48.392;10.836;2023-02-01T13:03:41;6.30;99.90
6114;DHT22;3087;48.392;10.836;2023-02-01T13:06:23;6.30;99.90
6114;DHT22;3087;48.392;10.836;2023-02-01T13:08:56;6.30;99.90
6114;DHT22;3087;48.392;10.836;2023-02-01T13:11:33;6.30;99.90
6114;DHT22;3087;48.392;10.836;2023-02-01T13:14:29;6.10;99.90
6114;DHT22;3087;48.392;10.836;2023-02-01T13:17:17;6.30;99.90
6114;DHT22;3087;48.392;10.836;2023-02-01T13:22:43;6.60;99.90
6114;DHT22;3087;48.392;10.836;2023-02-01T13:25:31;6.60;99.90
6114;DHT22;3087;48.392;10.836;2023-02-01T13:28:06;6.70;99.90
6114;DHT22;3087;48.392;10.836;2023-02-01T13:33:36;6.70;99.90
6114;DHT22;3087;48.392;10.836;2023-02-01T13:41:57;6.60;99.90
6114;DHT22;3087;48.392;10.836;2023-02-01T13:47:22;9.20;99.90
6114;DHT22;3087;48.392;10.836;2023-02-01T13:49:50;6.50;99.90
6114;DHT22;3087;48.392;10.836;2023-02-01T13:52:43;6.60;99.90
6114;DHT22;3087;48.392;10.836;2023-02-01T13:57:40;6.50;99.90
6114;DHT22;3087;48.392;10.836;2023-02-01T14:00:32;6.40;99.90
6114;DHT22;3087;48.392;10.836;2023-02-01T14:03:02;6.40;99.90
6114;DHT22;3087;48.392;10.836;2023-02-01T14:21:19;5.90;99.90
6114;DHT22;3087;48.392;10.836;2023-02-01T14:26:49;6.10;99.90
6114;DHT22;3087;48.392;10.836;2023-02-01T14:32:03;6.10;99.90
6114;DHT22;3087;48.392;10.836;2023-02-01T14:44:43;6.10;99.90
6114;DHT22;3087;48.392;10.836;2023-02-01T14:50:00;6.20;99.90
6114;DHT22;3087;48.392;10.836;2023-02-01T14:52:34;6.20;99.90
6114;DHT22;3087;48.392;10.836;2023-02-01T14:55:05;6.30;99.90
6114;DHT22;3087;48.392;10.836;2023-02-01T14:57:34;6.30;99.90
6114;DHT22;3087;48.392;10.836;2023-02-01T15:00:31;6.40;99.90
6114;DHT22;3087;48.392;10.836;2023-02-01T15:08:55;6.50;99.90
6114;DHT22;3087;48.392;10.836;2023-02-01T15:11:22;6.80;99.90
6114;DHT22;3087;48.392;10.836;2023-02-01T15:13:50;6.60;99.90
6114;DHT22;3087;48.392;10.836;2023-02-01T15:16:17;6.50;99.90
6114;DHT22;3087;48.392;10.836;2023-02-01T15:18:43;6.60;99.90
6114;DHT22;3087;48.392;10.836;2023-02-01T15:21:22;6.70;99.90
6114;DHT22;3087;48.392;10.836;2023-02-01T15:23:48;6.90;99.90
6114;DHT22;3087;48.392;10.836;2023-02-01T15:26:30;6.60;99.90
6114;DHT22;3087;48.392;10.836;2023-02-01T15:28:59;6.60;99.90
6114;DHT22;3087;48.392;10.836;2023-02-01T15:31:45;7.10;99.90
6114;DHT22;3087;48.392;10.836;2023-02-01T15:34:11;6.60;99.90
6114;DHT22;3087;48.392;10.836;2023-02-01T15:36:37;6.60;99.90
6114;DHT22;3087;48.392;10.836;2023-02-01T15:41:54;6.70;99.90
6114;DHT22;3087;48.392;10.836;2023-02-01T15:44:29;6.70;99.90
6114;DHT22;3087;48.392;10.836;2023-02-01T15:46:56;6.60;99.90
6114;DHT22;3087;48.392;10.836;2023-02-01T15:49:31;6.60;99.90
6114;DHT22;3087;48.392;10.836;2023-02-01T15:51:59;6.60;99.90
6114;DHT22;3087;48.392;10.836;2023-02-01T15:54:26;8.50;99.90
6114;DHT22;3087;48.392;10.836;2023-02-01T15:56:54;6.60;99.90
6114;DHT22;3087;48.392;10.836;2023-02-01T15:59:35;6.60;99.90
6114;DHT22;3087;48.392;10.836;2023-02-01T16:02:02;6.50;99.90
6114;DHT22;3087;48.392;10.836;2023-02-01T16:04:29;6.50;99.90
6114;DHT22;3087;48.392;10.836;2023-02-01T16:07:03;6.40;99.90
6114;DHT22;3087;48.392;10.836;2023-02-01T16:09:57;6.30;99.90
6114;DHT22;3087;48.392;10.836;2023-02-01T16:12:33;6.40;99.90
6114;DHT22;3087;48.392;10.836;2023-02-01T16:15:04;6.40;99.90
6114;DHT22;3087;48.392;10.836;2023-02-01T16:17:30;6.40;99.90
6114;DHT22;3087;48.392;10.836;2023-02-01T16:19:56;6.40;99.90
6114;DHT22;3087;48.392;10.836;2023-02-01T16:22:22;6.40;99.90
6114;DHT22;3087;48.392;10.836;2023-02-01T16:24:48;6.70;99.90
6114;DHT22;3087;48.392;10.836;2023-02-01T16:27:13;6.40;99.90
6114;DHT22;3087;48.392;10.836;2023-02-01T16:29:39;6.50;99.90
6114;DHT22;3087;48.392;10.836;2023-02-01T16:32:05;6.60;99.90
6114;DHT22;3087;48.392;10.836;2023-02-01T16:34:30;6.50;99.90
6114;DHT22;3087;48.392;10.836;2023-02-01T16:36:57;6.50;99.90
6114;DHT22;3087;48.392;10.836;2023-02-01T16:39:23;6.50;99.90
6114;DHT22;3087;48.392;10.836;2023-02-01T16:41:50;6.40;99.90
6114;DHT22;3087;48.392;10.836;2023-02-01T16:44:15;6.40;99.90
6114;DHT22;3087;48.392;10.836;2023-02-01T16:46:45;6.40;99.90
6114;DHT22;3087;48.392;10.836;2023-02-01T16:49:20;6.60;99.90
6114;DHT22;3087;48.392;10.836;2023-02-01T16:51:50;6.30;99.90
6114;DHT22;3087;48.392;10.836;2023-02-01T16:54:18;6.30;99.90
6114;DHT22;3087;48.392;10.836;2023-02-01T16:56:49;6.40;99.90
6114;DHT22;3087;48.392;10.836;2023-02-01T16:59:15;6.40;99.90
6114;DHT22;3087;48.392;10.836;2023-02-01T17:01:41;6.40;99.90
6114;DHT22;3087;48.392;10.836;2023-02-01T17:04:09;6.40;99.90
6114;DHT22;3087;48.392;10.836;2023-02-01T17:06:36;6.40;99.90
6114;DHT22;3087;48.392;10.836;2023-02-01T17:09:03;6.30;99.90
6114;DHT22;3087;48.392;10.836;2023-02-01T17:11:29;6.40;99.90
6114;DHT22;3087;48.392;10.836;2023-02-01T17:13:57;6.40;99.90
6114;DHT22;3087;48.392;10.836;2023-02-01T17:16:30;6.40;99.90
6114;DHT22;3087;48.392;10.836;2023-02-01T17:18:59;6.80;99.90
6114;DHT22;3087;48.392;10.836;2023-02-01T17:21:34;6.40;99.90
6114;DHT22;3087;48.392;10.836;2023-02-01T17:24:02;6.30;99.90
6114;DHT22;3087;48.392;10.836;2023-02-01T17:26:28;6.40;99.90
6114;DHT22;3087;48.392;10.836;2023-02-01T17:28:53;6.40;99.90
6114;DHT22;3087;48.392;10.836;2023-02-01T17:31:19;6.40;99.90
6114;DHT22;3087;48.392;10.836;2023-02-01T17:33:44;6.70;99.90
6114;DHT22;3087;48.392;10.836;2023-02-01T17:36:14;6.30;99.90
6114;DHT22;3087;48.392;10.836;2023-02-01T17:38:41;6.40;99.90
6114;DHT22;3087;48.392;10.836;2023-02-01T17:41:13;6.40;99.90
6114;DHT22;3087;48.392;10.836;2023-02-01T17:43:39;6.60;99.90
6114;DHT22;3087;48.392;10.836;2023-02-01T17:46:13;6.30;99.90
6114;DHT22;3087;48.392;10.836;2023-02-01T17:48:39;6.30;99.90
6114;DHT22;3087;48.392;10.836;2023-02-01T17:51:16;6.30;99.90
6114;DHT22;3087;48.392;10.836;2023-02-01T17:53:44;6.10;99.90
6114;DHT22;3087;48.392;10.836;2023-02-01T17:56:15;6.10;99.90
6114;DHT22;3087;48.392;10.836;2023-02-01T17:58:41;6.10;99.90
6114;DHT22;3087;48.392;10.836;2023-02-01T18:01:11;7.20;99.90
6114;DHT22;3087;48.392;10.836;2023-02-01T18:03:38;6.10;99.90
6114;DHT22;3087;48.392;10.836;2023-02-01T18:06:05;6.10;99.90
6114;DHT22;3087;48.392;10.836;2023-02-01T18:08:31;6.10;99.90
6114;DHT22;3087;48.392;10.836;2023-02-01T18:11:00;6.10;99.90
6114;DHT22;3087;48.392;10.836;2023-02-01T18:13:27;7.00;99.90
6114;DHT22;3087;48.392;10.836;2023-02-01T18:15:54;6.10;99.90
6114;DHT22;3087;48.392;10.836;2023-02-01T18:18:20;6.00;99.90
6114;DHT22;3087;48.392;10.836;2023-02-01T18:20:47;7.60;99.90
6114;DHT22;3087;48.392;10.836;2023-02-01T18:23:23;5.80;99.90
6114;DHT22;3087;48.392;10.836;2023-02-01T18:25:50;6.80;99.90
6114;DHT22;3087;48.392;10.836;2023-02-01T18:28:17;5.60;99.90
6114;DHT22;3087;48.392;10.836;2023-02-01T18:30:45;5.50;99.90
6114;DHT22;3087;48.392;10.836;2023-02-01T18:33:14;5.80;99.90
6114;DHT22;3087;48.392;10.836;2023-02-01T18:35:41;5.60;99.90
6114;DHT22;3087;48.392;10.836;2023-02-01T18:38:06;5.70;99.90
6114;DHT22;3087;48.392;10.836;2023-02-01T18:40:35;5.80;99.90
6114;DHT22;3087;48.392;10.836;2023-02-01T18:43:04;5.80;99.90
6114;DHT22;3087;48.392;10.836;2023-02-01T18:45:36;5.90;99.90
6114;DHT22;3087;48.392;10.836;2023-02-01T18:48:03;5.90;99.90
6114;DHT22;3087;48.392;10.836;2023-02-01T18:50:31;5.90;99.90
6114;DHT22;3087;48.392;10.836;2023-02-01T18:52:59;5.90;99.90
6114;DHT22;3087;48.392;10.836;2023-02-01T18:55:25;6.30;99.90
6114;DHT22;3087;48.392;10.836;2023-02-01T18:57:51;5.80;99.90
6114;DHT22;3087;48.392;10.836;2023-02-01T19:00:19;7.90;99.90
6114;DHT22;3087;48.392;10.836;2023-02-01T19:02:45;5.70;99.90
6114;DHT22;3087;48.392;10.836;2023-02-01T19:05:12;5.80;99.90
6114;DHT22;3087;48.392;10.836;2023-02-01T19:07:39;5.80;99.90
6114;DHT22;3087;48.392;10.836;2023-02-01T19:10:06;5.80;99.90
6114;DHT22;3087;48.392;10.836;2023-02-01T19:12:32;5.90;99.90
6114;DHT22;3087;48.392;10.836;2023-02-01T19:14:59;5.90;99.90